createdAt,value
2022-12-15T00:01:30.421Z,15.52
2022-12-15T00:04:50.499Z,16.77
2022-12-15T00:08:13.432Z,15.57
2022-12-15T00:11:33.751Z,16.02
2022-12-15T00:14:55.315Z,15.68
2022-12-15T00:18:15.408Z,15.77
2022-12-15T00:21:36.914Z,14.87
2022-12-15T00:24:59.694Z,16.07
2022-12-15T00:28:20.093Z,15.02
2022-12-15T00:31:41.730Z,15.15
2022-12-15T00:35:01.912Z,14.75
2022-12-15T00:38:26.401Z,14.03
2022-12-15T00:41:31.771Z,15.33
2022-12-15T00:44:35.191Z,15.27
2022-12-15T00:47:38.240Z,15.93
2022-12-15T00:50:53.112Z,15.60
2022-12-15T00:54:18.023Z,13.87
2022-12-15T00:57:40.841Z,16.50
2022-12-15T01:01:01.095Z,15.18
2022-12-15T01:04:22.702Z,14.88
2022-12-15T01:07:42.979Z,14.23
2022-12-15T01:11:04.453Z,14.13
2022-12-15T01:14:27.252Z,15.30
2022-12-15T01:17:47.667Z,15.43
2022-12-15T01:20:57.751Z,14.80
2022-12-15T01:24:00.408Z,14.55
2022-12-15T01:27:04.406Z,15.10
2022-12-15T01:30:12.085Z,14.03
2022-12-15T01:33:15.714Z,16.02
2022-12-15T01:36:19.665Z,15.18
2022-12-15T01:39:22.371Z,15.75
2022-12-15T01:42:25.425Z,14.00
2022-12-15T01:45:49.744Z,15.77
2022-12-15T01:48:59.999Z,14.23
2022-12-15T01:52:07.278Z,14.75
2022-12-15T01:55:10.457Z,13.88
2022-12-15T01:58:17.986Z,16.27
2022-12-15T02:01:22.248Z,15.33
2022-12-15T02:04:26.944Z,15.48
2022-12-15T02:07:30.875Z,15.65
2022-12-15T02:10:43.855Z,14.05
2022-12-15T02:17:37.974Z,12.73
2022-12-15T02:20:57.140Z,13.93
2022-12-15T02:24:21.994Z,13.65
2022-12-15T02:27:45.423Z,13.82
2022-12-15T02:34:41.407Z,14.13
2022-12-15T02:37:49.765Z,13.85
2022-12-15T02:41:00.337Z,15.18
2022-12-15T02:44:09.204Z,14.18
2022-12-15T02:47:25.264Z,14.20
2022-12-15T02:50:50.529Z,13.30
2022-12-15T02:54:24.288Z,14.10
2022-12-15T02:57:35.396Z,15.35
2022-12-15T03:00:43.313Z,13.85
2022-12-15T03:03:50.796Z,13.63
2022-12-15T03:07:01.031Z,14.43
2022-12-15T03:10:08.441Z,15.70
2022-12-15T03:13:12.435Z,15.52
2022-12-15T03:16:15.373Z,14.60
2022-12-15T03:19:20.967Z,16.17
2022-12-15T03:22:23.727Z,13.73
2022-12-15T03:25:27.679Z,12.88
2022-12-15T03:28:31.636Z,11.60
2022-12-15T03:31:34.362Z,11.85
2022-12-15T03:34:39.763Z,13.20
2022-12-15T03:37:44.921Z,12.97
2022-12-15T03:40:48.965Z,12.23
2022-12-15T03:43:51.649Z,14.38
2022-12-15T03:47:02.819Z,11.65
2022-12-15T03:50:10.052Z,14.37
2022-12-15T03:53:13.993Z,12.33
2022-12-15T03:56:16.787Z,12.38
2022-12-15T03:59:20.690Z,13.15
2022-12-15T04:02:23.695Z,11.60
2022-12-15T04:05:32.019Z,13.10
2022-12-15T04:08:35.951Z,12.83
2022-12-15T04:11:38.622Z,14.02
2022-12-15T04:14:43.705Z,13.18
2022-12-15T04:17:46.437Z,13.43
2022-12-15T04:20:51.728Z,13.67
2022-12-15T04:24:14.072Z,14.57
2022-12-15T04:27:34.564Z,12.32
2022-12-15T04:30:56.284Z,12.55
2022-12-15T04:34:19.631Z,13.73
2022-12-15T04:37:42.474Z,13.80
2022-12-15T04:41:04.038Z,13.30
2022-12-15T04:44:24.950Z,14.55
2022-12-15T04:47:46.518Z,15.05
2022-12-15T04:51:06.744Z,14.75
2022-12-15T04:54:29.407Z,13.47
2022-12-15T04:57:49.606Z,13.70
2022-12-15T05:01:10.354Z,13.15
2022-12-15T05:04:32.203Z,12.30
2022-12-15T05:07:52.392Z,13.47
2022-12-15T05:11:15.154Z,12.47
2022-12-15T05:18:14.519Z,13.18
2022-12-15T05:21:36.013Z,11.88
2022-12-15T05:24:56.289Z,11.80
2022-12-15T05:28:19.413Z,12.23
2022-12-15T05:31:40.739Z,12.45
2022-12-15T05:34:43.481Z,12.48
2022-12-15T05:37:47.506Z,12.80
2022-12-15T05:40:50.187Z,11.67
2022-12-15T05:43:55.542Z,13.37
2022-12-15T05:46:58.195Z,12.10
2022-12-15T05:50:02.120Z,11.00
2022-12-15T05:53:06.064Z,13.45
2022-12-15T05:56:10.966Z,13.23
2022-12-15T05:59:16.411Z,14.07
2022-12-15T06:02:19.123Z,11.13
2022-12-15T06:05:23.171Z,12.82
2022-12-15T06:08:27.105Z,12.85
2022-12-15T06:11:29.842Z,12.07
2022-12-15T06:14:35.534Z,12.67
2022-12-15T06:17:38.285Z,11.00
2022-12-15T06:20:42.260Z,12.07
2022-12-15T06:23:46.885Z,11.25
2022-12-15T06:26:49.930Z,13.00
2022-12-15T06:29:55.489Z,12.23
2022-12-15T06:32:58.184Z,12.73
2022-12-15T06:36:03.321Z,12.07
2022-12-15T06:39:10.377Z,10.73
2022-12-15T06:42:14.540Z,11.33
2022-12-15T06:45:19.936Z,11.57
2022-12-15T06:48:24.051Z,11.10
2022-12-15T06:51:28.998Z,12.10
2022-12-15T06:54:32.921Z,11.48
2022-12-15T06:57:36.578Z,11.77
2022-12-15T07:00:43.869Z,11.00
2022-12-15T07:03:47.271Z,12.38
2022-12-15T07:06:51.420Z,12.95
2022-12-15T07:09:55.684Z,11.80
2022-12-15T07:12:58.625Z,12.27
2022-12-15T07:16:04.334Z,11.23
2022-12-15T07:19:07.097Z,11.38
2022-12-15T07:22:11.060Z,11.60
2022-12-15T07:25:14.980Z,12.23
2022-12-15T07:28:22.538Z,11.77
2022-12-15T07:31:32.967Z,11.50
2022-12-15T07:34:35.828Z,10.82
2022-12-15T07:37:39.752Z,11.15
2022-12-15T07:40:43.759Z,10.75
2022-12-15T07:43:47.542Z,10.90
2022-12-15T07:46:53.577Z,10.97
2022-12-15T07:49:56.251Z,12.00
2022-12-15T07:53:00.190Z,10.73
2022-12-15T07:59:27.216Z,10.13
2022-12-15T08:02:31.492Z,11.87
2022-12-15T08:08:57.352Z,11.65
2022-12-15T08:12:01.308Z,12.15
2022-12-15T08:15:04.709Z,11.83
2022-12-15T08:18:11.235Z,11.40
2022-12-15T08:21:14.594Z,12.18
2022-12-15T08:24:20.528Z,11.82
2022-12-15T08:27:25.355Z,12.55
2022-12-15T08:30:28.032Z,12.27
2022-12-15T08:33:34.394Z,10.97
2022-12-15T08:36:37.407Z,12.95
2022-12-15T08:39:41.359Z,12.55
2022-12-15T08:42:46.144Z,12.05
2022-12-15T08:45:49.103Z,13.87
2022-12-15T08:48:55.982Z,12.70
2022-12-15T08:51:58.676Z,13.02
2022-12-15T08:55:02.665Z,11.55
2022-12-15T08:58:06.984Z,12.15
2022-12-15T09:01:20.562Z,12.40
2022-12-15T09:04:28.227Z,12.73
2022-12-15T09:07:30.975Z,12.68
2022-12-15T09:10:34.954Z,11.23
2022-12-15T09:13:37.975Z,12.60
2022-12-15T09:16:41.997Z,13.30
2022-12-15T09:19:47.348Z,12.88
2022-12-15T09:22:50.299Z,11.95
2022-12-15T09:26:01.928Z,13.93
2022-12-15T09:29:04.659Z,13.07
2022-12-15T09:32:14.080Z,14.03
2022-12-15T09:35:19.798Z,13.17
2022-12-15T09:38:22.639Z,13.20
2022-12-15T09:41:29.465Z,14.43
2022-12-15T09:44:33.954Z,13.18
2022-12-15T09:47:44.846Z,13.33
2022-12-15T09:50:54.672Z,14.27
2022-12-15T09:53:57.667Z,13.95
2022-12-15T09:57:07.318Z,15.07
2022-12-15T10:00:21.175Z,12.93
2022-12-15T10:03:38.226Z,12.40
2022-12-15T10:06:51.771Z,12.70
2022-12-15T10:09:54.685Z,13.65
2022-12-15T10:13:04.913Z,14.75
2022-12-15T10:16:19.527Z,13.38
2022-12-15T10:19:31.784Z,12.97
2022-12-15T10:22:39.868Z,13.43
2022-12-15T10:25:48.594Z,14.23
2022-12-15T10:29:11.040Z,14.00
2022-12-15T10:32:19.079Z,13.23
2022-12-15T10:35:26.501Z,12.40
2022-12-15T10:38:37.781Z,13.43
2022-12-15T10:41:42.069Z,13.70
2022-12-15T10:48:21.328Z,13.23
2022-12-15T10:51:31.061Z,14.67
2022-12-15T10:54:38.922Z,13.93
2022-12-15T10:57:59.282Z,14.43
2022-12-15T11:01:16.745Z,15.23
2022-12-15T11:04:30.267Z,14.90
2022-12-15T11:07:40.994Z,13.73
2022-12-15T11:11:11.289Z,13.50
2022-12-15T11:14:18.443Z,14.35
2022-12-15T11:17:25.590Z,12.48
2022-12-15T11:20:31.694Z,15.07
2022-12-15T11:23:48.790Z,13.33
2022-12-15T11:27:19.319Z,13.83
2022-12-15T11:30:25.291Z,14.45
2022-12-15T11:37:16.255Z,15.90
2022-12-15T11:40:41.922Z,14.67
2022-12-15T11:44:06.495Z,15.20
2022-12-15T11:47:16.701Z,12.75
2022-12-15T11:54:10.184Z,13.73
2022-12-15T11:57:40.907Z,13.83
2022-12-15T12:00:54.702Z,13.50
2022-12-15T12:04:05.704Z,14.43
2022-12-15T12:07:17.244Z,13.80
2022-12-15T12:10:32.245Z,16.08
2022-12-15T12:13:45.419Z,12.53
2022-12-15T12:16:56.601Z,13.60
2022-12-15T12:20:11.279Z,14.27
2022-12-15T12:23:21.004Z,14.00
2022-12-15T12:26:31.602Z,14.57
2022-12-15T12:29:37.618Z,14.27
2022-12-15T12:32:51.028Z,13.80
2022-12-15T12:35:58.890Z,13.48
2022-12-15T12:39:03.667Z,13.43
2022-12-15T12:42:13.433Z,14.27
2022-12-15T12:45:18.040Z,14.40
2022-12-15T12:48:28.905Z,12.30
2022-12-15T12:51:35.195Z,12.65
2022-12-15T12:54:43.549Z,12.40
2022-12-15T12:57:50.032Z,13.95
2022-12-15T13:01:08.275Z,14.70
2022-12-15T13:04:15.017Z,14.00
2022-12-15T13:07:32.493Z,14.35
2022-12-15T13:10:38.443Z,12.55
2022-12-15T13:13:48.559Z,15.20
2022-12-15T13:17:24.913Z,13.20
2022-12-15T13:20:26.994Z,13.87
2022-12-15T13:23:42.807Z,12.38
2022-12-15T13:30:18.010Z,13.27
2022-12-15T13:33:22.092Z,11.40
2022-12-15T13:36:52.520Z,12.43
2022-12-15T13:39:59.166Z,12.60
2022-12-15T13:43:12.625Z,12.65
2022-12-15T13:46:19.378Z,12.65
2022-12-15T13:49:29.230Z,13.07
2022-12-15T13:53:08.653Z,11.87
2022-12-15T13:56:22.074Z,13.70
2022-12-15T13:59:34.766Z,12.77
2022-12-15T14:06:02.458Z,13.10
2022-12-15T14:09:07.948Z,12.17
2022-12-15T14:12:16.430Z,11.95
2022-12-15T14:15:23.429Z,11.93
2022-12-15T14:18:31.160Z,12.45
2022-12-15T14:21:35.115Z,11.93
2022-12-15T14:24:50.717Z,12.07
2022-12-15T14:27:54.783Z,11.95
2022-12-15T14:31:01.001Z,12.18
2022-12-15T14:34:09.104Z,11.15
2022-12-15T14:37:18.034Z,13.07
2022-12-15T14:40:28.623Z,13.43
2022-12-15T14:43:37.463Z,12.77
2022-12-15T14:46:40.803Z,13.45
2022-12-15T14:53:17.814Z,14.47
2022-12-15T14:56:31.146Z,15.77
2022-12-15T14:59:36.893Z,13.85
2022-12-15T15:02:39.816Z,13.50
2022-12-15T15:03:11.381Z,12.88
2022-12-15T15:03:16.061Z,13.65
2022-12-15T15:09:21.263Z,14.07
2022-12-15T15:12:35.349Z,14.30
2022-12-15T15:15:39.316Z,14.70
2022-12-15T15:18:43.711Z,14.35
2022-12-15T15:21:48.482Z,13.70
2022-12-15T15:24:53.982Z,14.80
2022-12-15T15:28:14.136Z,14.97
2022-12-15T15:31:40.922Z,14.98
2022-12-15T15:38:18.731Z,13.95
2022-12-15T15:41:24.964Z,13.13
2022-12-15T15:44:29.073Z,13.00
2022-12-15T15:47:33.146Z,13.00
2022-12-15T15:50:37.773Z,12.45
2022-12-15T15:53:41.874Z,12.65
2022-12-15T15:56:45.897Z,13.47
2022-12-15T15:59:49.953Z,12.70
2022-12-15T16:02:54.476Z,12.65
2022-12-15T16:05:57.514Z,13.48
2022-12-15T16:09:01.641Z,15.02
2022-12-15T16:12:07.614Z,14.23
2022-12-15T16:15:23.015Z,14.60
2022-12-15T16:18:25.778Z,12.98
2022-12-15T16:21:28.837Z,14.50
2022-12-15T16:24:32.780Z,12.98
2022-12-15T16:27:35.486Z,12.80
2022-12-15T16:34:02.737Z,12.57
2022-12-15T16:37:07.347Z,13.57
2022-12-15T16:40:19.169Z,15.32
2022-12-15T16:43:25.656Z,14.17
2022-12-15T16:46:31.096Z,14.83
2022-12-15T16:52:56.010Z,13.23
2022-12-15T16:56:01.892Z,13.48
2022-12-15T17:02:31.152Z,16.20
2022-12-15T17:05:37.728Z,14.25
2022-12-15T17:08:44.615Z,13.68
2022-12-15T17:11:48.650Z,13.82
2022-12-15T17:14:52.608Z,15.97
2022-12-15T17:17:57.332Z,15.53
2022-12-15T17:21:05.063Z,15.07
2022-12-15T17:24:14.983Z,15.70
2022-12-15T17:27:25.799Z,14.07
2022-12-15T17:30:29.732Z,14.37
2022-12-15T17:33:36.202Z,14.03
2022-12-15T17:36:40.296Z,14.48
2022-12-15T17:39:49.095Z,14.98
2022-12-15T17:42:51.994Z,14.02
2022-12-15T17:45:57.008Z,14.20
2022-12-15T17:49:01.141Z,13.50
2022-12-15T17:52:07.716Z,13.93
2022-12-15T17:55:21.956Z,14.90
2022-12-15T17:58:26.650Z,14.65
2022-12-15T18:01:30.705Z,14.83
2022-12-15T18:04:35.258Z,14.30
2022-12-15T18:07:39.399Z,15.15
2022-12-15T18:10:43.953Z,16.42
2022-12-15T18:13:46.658Z,13.98
2022-12-15T18:20:13.266Z,13.27
2022-12-15T18:23:19.211Z,14.55
2022-12-15T18:26:23.319Z,14.93
2022-12-15T18:29:26.213Z,13.70
2022-12-15T18:32:31.899Z,14.07
2022-12-15T18:35:39.965Z,13.73
2022-12-15T18:38:44.582Z,13.73
2022-12-15T18:45:18.099Z,13.48
2022-12-15T18:48:24.605Z,13.80
2022-12-15T18:51:30.647Z,14.03
2022-12-15T18:54:34.677Z,14.27
2022-12-15T18:57:39.022Z,15.00
2022-12-15T19:00:41.817Z,15.77
2022-12-15T19:03:45.784Z,16.27
2022-12-15T19:06:49.876Z,15.83
2022-12-15T19:09:53.983Z,15.45
2022-12-15T19:12:58.715Z,15.23
2022-12-15T19:16:04.072Z,15.35
2022-12-15T19:19:25.395Z,16.43
2022-12-15T19:22:29.964Z,15.60
2022-12-15T19:25:34.792Z,13.75
2022-12-15T19:28:37.613Z,14.20
2022-12-15T19:31:41.664Z,15.13
2022-12-15T19:34:46.097Z,15.13
2022-12-15T19:37:50.358Z,14.33
2022-12-15T19:40:55.653Z,13.95
2022-12-15T19:43:58.337Z,14.85
2022-12-15T19:47:02.313Z,12.37
2022-12-15T19:50:06.803Z,13.85
2022-12-15T19:53:17.395Z,13.75
2022-12-15T19:56:24.033Z,12.68
2022-12-15T19:59:28.131Z,12.88
2022-12-15T20:02:32.164Z,12.17
2022-12-15T20:05:36.540Z,12.55
2022-12-15T20:08:42.698Z,12.68
2022-12-15T20:11:46.994Z,13.20
2022-12-15T20:14:49.688Z,12.90
2022-12-15T20:21:22.604Z,12.95
2022-12-15T20:24:27.302Z,12.48
2022-12-15T20:27:31.544Z,12.93
2022-12-15T20:30:36.309Z,14.07
2022-12-15T20:40:26.301Z,14.98
2022-12-15T20:43:33.174Z,12.82
2022-12-15T20:46:37.577Z,14.35
2022-12-15T20:49:40.361Z,14.30
2022-12-15T20:52:44.743Z,14.07
2022-12-15T20:55:50.404Z,14.73
2022-12-15T20:58:55.324Z,14.55
2022-12-15T21:01:58.251Z,16.42
2022-12-15T21:05:02.454Z,15.00
2022-12-15T21:08:12.503Z,13.57
2022-12-15T21:11:21.180Z,15.10
2022-12-15T21:14:26.629Z,15.32
2022-12-15T21:17:57.940Z,14.77
2022-12-15T21:21:20.781Z,15.07
2022-12-15T21:24:27.205Z,15.80
2022-12-15T21:27:31.304Z,16.33
2022-12-15T21:30:36.888Z,15.77
2022-12-15T21:33:40.893Z,16.80
2022-12-15T21:36:45.751Z,15.93
2022-12-15T21:39:49.902Z,15.73
2022-12-15T21:42:54.710Z,14.82
2022-12-15T21:45:58.787Z,14.73
2022-12-15T21:49:19.387Z,15.23
2022-12-15T21:52:23.138Z,15.30
2022-12-15T21:55:29.597Z,13.90
2022-12-15T21:58:34.072Z,15.10
2022-12-15T22:04:59.795Z,13.90
2022-12-15T22:08:14.072Z,13.23
2022-12-15T22:14:45.352Z,12.50
2022-12-15T22:17:48.608Z,12.63
2022-12-15T22:20:53.701Z,14.13
2022-12-15T22:23:56.440Z,13.00
2022-12-15T22:27:00.408Z,12.90
2022-12-15T22:30:05.985Z,12.73
2022-12-15T22:33:20.397Z,13.82
2022-12-15T22:36:24.629Z,14.27
2022-12-15T22:39:28.464Z,13.90
2022-12-15T22:42:32.523Z,14.13
2022-12-15T22:45:41.259Z,13.27
2022-12-15T22:48:47.938Z,12.15
2022-12-15T22:51:51.935Z,12.38
2022-12-15T22:54:56.729Z,11.97
2022-12-15T23:01:29.137Z,12.90
2022-12-15T23:04:34.020Z,13.10
2022-12-15T23:07:37.010Z,13.23
2022-12-15T23:10:58.762Z,12.70
2022-12-15T23:14:01.455Z,13.07
2022-12-15T23:17:05.867Z,12.73
2022-12-15T23:20:09.688Z,12.10
2022-12-15T23:23:13.759Z,12.40
2022-12-15T23:26:18.087Z,11.07
2022-12-15T23:29:22.123Z,12.80
2022-12-15T23:32:27.535Z,12.18
2022-12-15T23:35:30.303Z,12.65
2022-12-15T23:38:34.335Z,12.18
2022-12-15T23:41:37.049Z,13.20
2022-12-15T23:44:41.051Z,12.55
2022-12-15T23:47:46.455Z,12.25
2022-12-15T23:50:50.452Z,11.50
2022-12-15T23:53:54.715Z,12.63
2022-12-15T23:56:57.477Z,12.30
